Osprey, Florida
Current Conditions -  °F | °C
As of 8:53 AM on Saturday 25 Oct 2014 (Local Time) from KSRQ Reporting Station
Clear Clear  
Wind Chill: 66°   Ceiling: Unl
Heat Index: 66°   Visibility: 10mi
Dew Point: 55°   Wind: 8mph
Humidity: 68%   Direction: 30°NNE
Pressure: 29.98"   Gusts: NA
Location:  27.2°N, 82.49°W
Report Text: KSRQ 251253Z 03007KT 10SM CLR 19/13 A2998 RMK AO2 SLP151 T01890128
Loading
Personal Weather Stations






























Interactive Weather Map
Tropical Storm Tracking
New forecast layout! Learn more

10-Day Weather Forecast

Advertisements
Track Severe Weather on mobile